Time;durP1;ratioP1;P1;durP2;ratioP2;P2;SDS_P1;SDS_P2;PMS_P1;PMS_P2;Temp;Humidity;BMP_temperature;BMP_pressure;BME280_temperature;BME280_humidity;BME280_pressure;Samples;Min_cycle;Max_cycle;Signal;HPM_P1;HPM_P2
2022/04/21 00:00:04;;;;;;;;;;;;;;;;;;5054567;28;19944;-77
2022/04/21 00:02:31;;;;;;;;;;;;;;;;;;5050340;28;19972;-77
2022/04/21 00:04:57;;;;;;;;;;;;;;;;;;5057630;28;19947;-77
2022/04/21 00:07:24;;;;;;;;;;;;;;;;;;5043530;28;19952;-77
2022/04/21 00:09:50;;;;;;;;;;;;;;;;;;5046164;28;19979;-77
2022/04/21 00:12:16;;;;;;;;;;;;;;;;;;5046644;28;20029;-77
2022/04/21 00:14:42;;;;;;;;;;;;;;;;;;5049517;28;19948;-78
2022/04/21 00:17:08;;;;;;;;;;;;;;;;;;5055977;28;19952;-78
2022/04/21 00:19:35;;;;;;;;;;;;;;;;;;5038999;28;20397;-78
2022/04/21 00:24:46;;;;;;;;;;;;;;;;;;5047514;28;19945;-78
2022/04/21 00:27:12;;;;;;;;;;;;;;;;;;5053107;28;19990;-79
2022/04/21 00:29:38;;;;;;;;;;;;;;;;;;5049265;28;20057;-78
2022/04/21 00:32:05;;;;;;;;;;;;;;;;;;5049462;28;19964;-79
2022/04/21 00:34:31;;;;;;;;;;;;;;;;;;5050128;28;19966;-79
2022/04/21 00:36:57;;;;;;;;;;;;;;;;;;5057585;28;19982;-79
2022/04/21 00:39:23;;;;;;;;;;;;;;;;;;5038549;28;19917;-80
2022/04/21 00:41:50;;;;;;;;;;;;;;;;;;5043897;28;19955;-78
2022/04/21 00:44:16;;;;;;;;;;;;;;;;;;5052659;28;19944;-78
2022/04/21 00:46:42;;;;;;;;;;;;;;;;;;5059539;28;19956;-78
2022/04/21 00:49:08;;;;;;;;;;;;;;;;;;5049400;28;19916;-79
2022/04/21 00:51:35;;;;;;;;;;;;;;;;;;5062150;28;19967;-79
2022/04/21 00:54:02;;;;;;;;;;;;;;;;;;5036320;28;19952;-78
2022/04/21 00:56:28;;;;;;;;;;;;;;;;;;5052242;28;19959;-79
2022/04/21 00:58:54;;;;;;;;;;;;;;;;;;5051096;28;20438;-78
2022/04/21 01:04:05;;;;;;;;;;;;;;;;;;5047005;28;19957;-82
2022/04/21 01:06:31;;;;;;;;;;;;;;;;;;5043511;28;19953;-81
2022/04/21 01:08:57;;;;;;;;;;;;;;;;;;5044920;28;19952;-80
2022/04/21 01:11:24;;;;;;;;;;;;;;;;;;5028198;28;19944;-78
2022/04/21 01:13:50;;;;;;;;;;;;;;;;;;5040244;28;20002;-78
2022/04/21 01:16:16;;;;;;;;;;;;;;;;;;5044764;28;19963;-78
2022/04/21 01:18:43;;;;;;;;;;;;;;;;;;5047924;28;20392;-79
2022/04/21 01:21:09;;;;;;;;;;;;;;;;;;5044507;28;19964;-79
2022/04/21 01:23:35;;;;;;;;;;;;;;;;;;5045674;28;19952;-80
2022/04/21 01:26:01;;;;;;;;;;;;;;;;;;5040400;28;19956;-79
2022/04/21 01:28:27;;;;;;;;;;;;;;;;;;5067104;28;19966;-79
2022/04/21 01:30:53;;;;;;;;;;;;;;;;;;5046683;28;19951;-80
2022/04/21 01:33:20;;;;;;;;;;;;;;;;;;5049567;28;20005;-79
2022/04/21 01:35:46;;;;;;;;;;;;;;;;;;5041206;28;19952;-78
2022/04/21 01:41:09;;;;;;;;;;;;;;;;;;5042456;28;19956;-78
2022/04/21 01:43:35;;;;;;;;;;;;;;;;;;5054429;28;20292;-78
2022/04/21 01:46:01;;;;;;;;;;;;;;;;;;5029287;28;20486;-78
2022/04/21 01:48:28;;;;;;;;;;;;;;;;;;5040128;28;20025;-77
2022/04/21 01:50:54;;;;;;;;;;;;;;;;;;5052232;28;19960;-77
2022/04/21 01:53:20;;;;;;;;;;;;;;;;;;5047028;28;19959;-78
2022/04/21 01:55:46;;;;;;;;;;;;;;;;;;5047681;28;19952;-78
2022/04/21 01:58:12;;;;;;;;;;;;;;;;;;5040942;28;19960;-78
2022/04/21 02:00:39;;;;;;;;;;;;;;;;;;5043244;28;19963;-78
2022/04/21 02:03:05;;;;;;;;;;;;;;;;;;5047668;28;19964;-77
2022/04/21 02:05:31;;;;;;;;;;;;;;;;;;5045983;28;19963;-77
2022/04/21 02:07:57;;;;;;;;;;;;;;;;;;5049069;28;20459;-78
2022/04/21 02:10:23;;;;;;;;;;;;;;;;;;5044569;28;19952;-77
2022/04/21 02:12:50;;;;;;;;;;;;;;;;;;5058960;28;19957;-79
2022/04/21 02:15:19;;;;;;;;;;;;;;;;;;5038611;28;20025;-79
2022/04/21 02:17:46;;;;;;;;;;;;;;;;;;5051026;28;20439;-79
2022/04/21 02:20:14;;;;;;;;;;;;;;;;;;5045108;28;19955;-80
2022/04/21 02:22:40;;;;;;;;;;;;;;;;;;5051386;28;19950;-79
2022/04/21 02:25:06;;;;;;;;;;;;;;;;;;5046028;28;19945;-78
2022/04/21 02:27:33;;;;;;;;;;;;;;;;;;5038437;28;19976;-78
2022/04/21 02:29:59;;;;;;;;;;;;;;;;;;5056068;28;20390;-79
2022/04/21 02:32:25;;;;;;;;;;;;;;;;;;5043601;28;19948;-79
2022/04/21 02:34:53;;;;;;;;;;;;;;;;;;5062739;28;19948;-79
2022/04/21 02:37:20;;;;;;;;;;;;;;;;;;5061436;28;19986;-78
2022/04/21 02:39:46;;;;;;;;;;;;;;;;;;5042831;28;19949;-79
2022/04/21 02:42:12;;;;;;;;;;;;;;;;;;5046129;28;19952;-78
2022/04/21 02:44:38;;;;;;;;;;;;;;;;;;5044670;28;19960;-78
2022/04/21 02:47:05;;;;;;;;;;;;;;;;;;5031590;28;19943;-79
2022/04/21 02:49:32;;;;;;;;;;;;;;;;;;5052577;28;20467;-78
2022/04/21 02:51:58;;;;;;;;;;;;;;;;;;5042242;28;20405;-79
2022/04/21 02:57:20;;;;;;;;;;;;;;;;;;5025115;28;19959;-81
2022/04/21 02:59:53;;;;;;;;;;;;;;;;;;5027119;28;20398;-79
2022/04/21 03:02:19;;;;;;;;;;;;;;;;;;5040709;28;19952;-80
2022/04/21 03:04:58;;;;;;;;;;;;;;;;;;5050818;28;19917;-81
2022/04/21 03:07:24;;;;;;;;;;;;;;;;;;5023860;28;19917;-81
2022/04/21 03:09:50;;;;;;;;;;;;;;;;;;5030528;28;20002;-80
2022/04/21 03:12:37;;;;;;;;;;;;;;;;;;4976914;28;19920;-80
2022/04/21 03:15:03;;;;;;;;;;;;;;;;;;5038685;28;19961;-80
2022/04/21 03:17:29;;;;;;;;;;;;;;;;;;5048077;28;20341;-80
2022/04/21 03:19:56;;;;;;;;;;;;;;;;;;5036842;28;20333;-78
2022/04/21 03:25:21;;;;;;;;;;;;;;;;;;5011832;28;19968;-80
2022/04/21 03:27:50;;;;;;;;;;;;;;;;;;5036535;28;20409;-79
2022/04/21 03:30:16;;;;;;;;;;;;;;;;;;5039200;28;19952;-80
2022/04/21 03:32:43;;;;;;;;;;;;;;;;;;5039510;28;20012;-80
2022/04/21 03:35:11;;;;;;;;;;;;;;;;;;5039985;28;19960;-80
2022/04/21 03:37:37;;;;;;;;;;;;;;;;;;5029610;28;19956;-81
2022/04/21 03:40:04;;;;;;;;;;;;;;;;;;5036730;28;20346;-80
2022/04/21 03:42:32;;;;;;;;;;;;;;;;;;5034626;28;19965;-81
2022/04/21 03:45:02;;;;;;;;;;;;;;;;;;5043123;28;19959;-81
2022/04/21 03:47:28;;;;;;;;;;;;;;;;;;5036871;28;19941;-80
2022/04/21 03:49:54;;;;;;;;;;;;;;;;;;5044670;28;19944;-80
2022/04/21 03:52:20;;;;;;;;;;;;;;;;;;5041065;28;19944;-79
2022/04/21 03:54:47;;;;;;;;;;;;;;;;;;5043555;28;20448;-80
2022/04/21 03:57:13;;;;;;;;;;;;;;;;;;5047015;28;19960;-81
2022/04/21 03:59:39;;;;;;;;;;;;;;;;;;5022027;28;19931;-79
2022/04/21 04:02:05;;;;;;;;;;;;;;;;;;5035990;28;19972;-80
2022/04/21 04:04:31;;;;;;;;;;;;;;;;;;5037480;28;19944;-81
2022/04/21 04:12:27;;;;;;;;;;;;;;;;;;5037850;28;20244;-77
2022/04/21 04:14:54;;;;;;;;;;;;;;;;;;5034368;28;19960;-78
2022/04/21 04:17:20;;;;;;;;;;;;;;;;;;5035687;28;20387;-79
2022/04/21 04:19:46;;;;;;;;;;;;;;;;;;5052526;28;19944;-79
2022/04/21 04:22:14;;;;;;;;;;;;;;;;;;5055521;28;20677;-78
2022/04/21 04:24:41;;;;;;;;;;;;;;;;;;5058154;28;19962;-79
2022/04/21 04:27:07;;;;;;;;;;;;;;;;;;5052054;28;20441;-79
2022/04/21 04:29:33;;;;;;;;;;;;;;;;;;5030328;28;20022;-79
2022/04/21 04:32:01;;;;;;;;;;;;;;;;;;5048746;28;20055;-76
2022/04/21 04:34:27;;;;;;;;;;;;;;;;;;5057180;28;19939;-76
2022/04/21 04:36:53;;;;;;;;;;;;;;;;;;5047286;28;19956;-78
2022/04/21 04:39:20;;;;;;;;;;;;;;;;;;5052257;28;19955;-79
2022/04/21 04:44:31;;;;;;;;;;;;;;;;;;5041027;28;21178;-79
2022/04/21 04:46:57;;;;;;;;;;;;;;;;;;5038346;28;19952;-78
2022/04/21 04:49:23;;;;;;;;;;;;;;;;;;5054607;28;19956;-78
2022/04/21 04:51:50;;;;;;;;;;;;;;;;;;5056962;28;20012;-79
2022/04/21 04:54:17;;;;;;;;;;;;;;;;;;5046117;28;19944;-77
2022/04/21 04:56:43;;;;;;;;;;;;;;;;;;5041480;28;19952;-78
2022/04/21 04:59:11;;;;;;;;;;;;;;;;;;5051429;28;19970;-79
2022/04/21 05:01:41;;;;;;;;;;;;;;;;;;5043529;28;19971;-79
2022/04/21 05:04:07;;;;;;;;;;;;;;;;;;5050160;28;20024;-79
2022/04/21 05:06:33;;;;;;;;;;;;;;;;;;5049096;28;19944;-79
2022/04/21 05:08:59;;;;;;;;;;;;;;;;;;5068647;28;20337;-79
2022/04/21 05:11:26;;;;;;;;;;;;;;;;;;5054764;28;19955;-79
2022/04/21 05:13:52;;;;;;;;;;;;;;;;;;5046113;28;19959;-78
2022/04/21 05:16:18;;;;;;;;;;;;;;;;;;5061561;28;20471;-79
2022/04/21 05:18:44;;;;;;;;;;;;;;;;;;5029532;28;19967;-79
2022/04/21 05:21:10;;;;;;;;;;;;;;;;;;5047980;28;20385;-76
2022/04/21 05:23:37;;;;;;;;;;;;;;;;;;5049855;28;19956;-77
2022/04/21 05:26:03;;;;;;;;;;;;;;;;;;5034218;28;20398;-78
2022/04/21 05:28:30;;;;;;;;;;;;;;;;;;5063233;28;19951;-77
2022/04/21 05:30:58;;;;;;;;;;;;;;;;;;5029724;28;19955;-77
2022/04/21 05:33:24;;;;;;;;;;;;;;;;;;5047775;28;19949;-77
2022/04/21 05:35:53;;;;;;;;;;;;;;;;;;5044454;28;20377;-77
2022/04/21 05:38:21;;;;;;;;;;;;;;;;;;5038960;28;19956;-77
2022/04/21 05:40:47;;;;;;;;;;;;;;;;;;5059997;28;19916;-78
2022/04/21 05:43:13;;;;;;;;;;;;;;;;;;5033618;28;19948;-78
2022/04/21 05:45:39;;;;;;;;;;;;;;;;;;5014832;28;19920;-78
2022/04/21 05:48:06;;;;;;;;;;;;;;;;;;5028250;28;19940;-77
2022/04/21 05:50:32;;;;;;;;;;;;;;;;;;5051584;28;19960;-77
2022/04/21 05:52:58;;;;;;;;;;;;;;;;;;5056982;28;20395;-76
2022/04/21 05:55:25;;;;;;;;;;;;;;;;;;5039617;28;20015;-77
2022/04/21 05:57:51;;;;;;;;;;;;;;;;;;5048961;28;19964;-77
2022/04/21 06:00:17;;;;;;;;;;;;;;;;;;5060725;28;19948;-77
2022/04/21 06:02:43;;;;;;;;;;;;;;;;;;5042661;28;20051;-77
2022/04/21 06:05:09;;;;;;;;;;;;;;;;;;5034414;28;19952;-78
2022/04/21 06:07:35;;;;;;;;;;;;;;;;;;5071560;28;19913;-78
2022/04/21 06:10:02;;;;;;;;;;;;;;;;;;5050216;28;19963;-78
2022/04/21 06:12:28;;;;;;;;;;;;;;;;;;5050832;28;19948;-78
2022/04/21 06:14:54;;;;;;;;;;;;;;;;;;5058878;28;19948;-78
2022/04/21 06:17:20;;;;;;;;;;;;;;;;;;5046612;28;19948;-78
2022/04/21 06:19:47;;;;;;;;;;;;;;;;;;5049966;28;19952;-78
2022/04/21 06:22:14;;;;;;;;;;;;;;;;;;5018719;28;20384;-78
2022/04/21 06:24:40;;;;;;;;;;;;;;;;;;5052097;28;19952;-78
2022/04/21 06:27:06;;;;;;;;;;;;;;;;;;5049265;28;19963;-78
2022/04/21 06:29:32;;;;;;;;;;;;;;;;;;5027119;28;19959;-78
2022/04/21 06:31:59;;;;;;;;;;;;;;;;;;5045256;28;19952;-77
2022/04/21 06:34:25;;;;;;;;;;;;;;;;;;5049171;28;19948;-78
2022/04/21 06:36:51;;;;;;;;;;;;;;;;;;5042261;28;19949;-77
2022/04/21 06:39:17;;;;;;;;;;;;;;;;;;5063904;28;19963;-77
2022/04/21 06:41:43;;;;;;;;;;;;;;;;;;5032394;28;19998;-76
2022/04/21 06:49:40;;;;;;;;;;;;;;;;;;5049246;28;20377;-76
2022/04/21 06:52:06;;;;;;;;;;;;;;;;;;5039530;28;19956;-76
2022/04/21 06:54:32;;;;;;;;;;;;;;;;;;5031899;28;20482;-76
2022/04/21 06:56:59;;;;;;;;;;;;;;;;;;5046516;28;20007;-76
2022/04/21 06:59:25;;;;;;;;;;;;;;;;;;5042682;28;19944;-76
2022/04/21 07:01:51;;;;;;;;;;;;;;;;;;5046398;28;19956;-76
2022/04/21 07:04:17;;;;;;;;;;;;;;;;;;5049148;28;20286;-76
2022/04/21 07:06:44;;;;;;;;;;;;;;;;;;5058065;28;20002;-77
2022/04/21 07:09:10;;;;;;;;;;;;;;;;;;5052638;28;19952;-77
2022/04/21 07:11:38;;;;;;;;;;;;;;;;;;5070526;28;20306;-76
2022/04/21 07:14:04;;;;;;;;;;;;;;;;;;5044054;28;19952;-77
2022/04/21 07:16:30;;;;;;;;;;;;;;;;;;5048542;28;20348;-76
2022/04/21 07:18:57;;;;;;;;;;;;;;;;;;5062061;28;19960;-76
2022/04/21 07:21:23;;;;;;;;;;;;;;;;;;5041159;28;19993;-76
2022/04/21 07:23:52;;;;;;;;;;;;;;;;;;5053691;28;19968;-75
2022/04/21 07:26:18;;;;;;;;;;;;;;;;;;5061178;28;20010;-76
2022/04/21 07:28:45;;;;;;;;;;;;;;;;;;5029526;28;19956;-76
2022/04/21 07:31:12;;;;;;;;;;;;;;;;;;5023362;28;19979;-76
2022/04/21 07:33:38;;;;;;;;;;;;;;;;;;5052746;28;19943;-76
2022/04/21 07:36:04;;;;;;;;;;;;;;;;;;5033046;28;19959;-77
2022/04/21 07:38:31;;;;;;;;;;;;;;;;;;5037568;28;19955;-76
2022/04/21 07:40:57;;;;;;;;;;;;;;;;;;5046522;28;19956;-75
2022/04/21 07:43:23;;;;;;;;;;;;;;;;;;5016009;28;20369;-76
2022/04/21 07:45:49;;;;;;;;;;;;;;;;;;5045917;28;19963;-76
2022/04/21 07:48:15;;;;;;;;;;;;;;;;;;5047740;28;20017;-75
2022/04/21 07:50:42;;;;;;;;;;;;;;;;;;5043885;28;19940;-75
2022/04/21 07:53:14;;;;;;;;;;;;;;;;;;5045491;28;19955;-78
2022/04/21 07:55:40;;;;;;;;;;;;;;;;;;5051843;28;20189;-76
2022/04/21 07:58:06;;;;;;;;;;;;;;;;;;5034759;28;19917;-77
2022/04/21 08:00:38;;;;;;;;;;;;;;;;;;5072080;28;19952;-76
2022/04/21 08:03:04;;;;;;;;;;;;;;;;;;5046639;28;19960;-77
2022/04/21 08:05:30;;;;;;;;;;;;;;;;;;5044939;28;20385;-76
2022/04/21 08:07:57;;;;;;;;;;;;;;;;;;5036430;28;19949;-77
2022/04/21 08:10:25;;;;;;;;;;;;;;;;;;5052552;28;19964;-76
2022/04/21 08:12:51;;;;;;;;;;;;;;;;;;5037537;28;20369;-76
2022/04/21 08:15:19;;;;;;;;;;;;;;;;;;5049493;28;19948;-76
2022/04/21 08:17:45;;;;;;;;;;;;;;;;;;5051101;28;20373;-76
2022/04/21 08:20:12;;;;;;;;;;;;;;;;;;5052971;28;19971;-76
2022/04/21 08:22:38;;;;;;;;;;;;;;;;;;5069626;28;20380;-76
2022/04/21 08:33:19;;;;;;;;;;;;;;;;;;5051128;28;19948;-76
2022/04/21 08:35:45;;;;;;;;;;;;;;;;;;5057861;28;20436;-76
2022/04/21 08:38:11;;;;;;;;;;;;;;;;;;5050850;28;19956;-77
2022/04/21 08:40:37;;;;;;;;;;;;;;;;;;5059873;28;20135;-76
2022/04/21 08:43:03;;;;;;;;;;;;;;;;;;5049641;28;19964;-77
2022/04/21 08:45:30;;;;;;;;;;;;;;;;;;5043508;28;20325;-77
2022/04/21 08:47:58;;;;;;;;;;;;;;;;;;5035003;28;19957;-77
2022/04/21 08:50:24;;;;;;;;;;;;;;;;;;5050833;28;19952;-76
2022/04/21 08:52:51;;;;;;;;;;;;;;;;;;5044353;28;19954;-76
2022/04/21 08:55:17;;;;;;;;;;;;;;;;;;5030490;28;19990;-76
2022/04/21 08:57:43;;;;;;;;;;;;;;;;;;5042114;28;19952;-76
2022/04/21 09:00:09;;;;;;;;;;;;;;;;;;5054168;28;19956;-77
2022/04/21 09:02:35;;;;;;;;;;;;;;;;;;5069428;28;19944;-76
2022/04/21 09:05:02;;;;;;;;;;;;;;;;;;5060588;28;19960;-76
2022/04/21 09:07:28;;;;;;;;;;;;;;;;;;5042470;28;20025;-76
2022/04/21 09:09:54;;;;;;;;;;;;;;;;;;5038541;28;19968;-76
2022/04/21 09:12:20;;;;;;;;;;;;;;;;;;5027102;28;19953;-76
2022/04/21 09:14:46;;;;;;;;;;;;;;;;;;5039909;28;19947;-76
2022/04/21 09:17:12;;;;;;;;;;;;;;;;;;5048108;28;19952;-76
2022/04/21 09:19:39;;;;;;;;;;;;;;;;;;5050567;28;19956;-76
2022/04/21 09:22:05;;;;;;;;;;;;;;;;;;5041805;28;19956;-77
2022/04/21 09:24:31;;;;;;;;;;;;;;;;;;5036484;28;19948;-76
2022/04/21 09:26:57;;;;;;;;;;;;;;;;;;5051952;28;19925;-76
2022/04/21 09:29:24;;;;;;;;;;;;;;;;;;5037750;28;19953;-76
2022/04/21 09:31:50;;;;;;;;;;;;;;;;;;5051316;28;19955;-76
2022/04/21 09:34:17;;;;;;;;;;;;;;;;;;5054328;28;19949;-76
2022/04/21 09:36:43;;;;;;;;;;;;;;;;;;5039714;28;20006;-76
2022/04/21 09:39:09;;;;;;;;;;;;;;;;;;5053929;28;19948;-76
2022/04/21 09:41:35;;;;;;;;;;;;;;;;;;5039689;28;20487;-76
2022/04/21 09:44:01;;;;;;;;;;;;;;;;;;5046229;28;20462;-76
2022/04/21 09:46:28;;;;;;;;;;;;;;;;;;5049136;28;20002;-77
2022/04/21 09:48:54;;;;;;;;;;;;;;;;;;5047980;28;19952;-77
2022/04/21 09:51:21;;;;;;;;;;;;;;;;;;5028185;28;19956;-77
2022/04/21 09:53:47;;;;;;;;;;;;;;;;;;5047627;28;20008;-76
2022/04/21 09:56:13;;;;;;;;;;;;;;;;;;5031260;28;19917;-77
2022/04/21 09:58:39;;;;;;;;;;;;;;;;;;5049176;28;19951;-77
2022/04/21 10:01:06;;;;;;;;;;;;;;;;;;5049813;28;19944;-78
2022/04/21 10:03:35;;;;;;;;;;;;;;;;;;5032988;28;19955;-78
2022/04/21 10:06:01;;;;;;;;;;;;;;;;;;5055728;28;20522;-78
2022/04/21 10:08:29;;;;;;;;;;;;;;;;;;5043156;28;20558;-79
2022/04/21 10:10:55;;;;;;;;;;;;;;;;;;5061767;28;19948;-79
2022/04/21 10:13:21;;;;;;;;;;;;;;;;;;5046148;28;20043;-78
2022/04/21 10:15:47;;;;;;;;;;;;;;;;;;5063389;28;20404;-78
2022/04/21 10:18:15;;;;;;;;;;;;;;;;;;5068566;28;19960;-79
2022/04/21 10:20:41;;;;;;;;;;;;;;;;;;5059722;28;19994;-78
2022/04/21 10:23:07;;;;;;;;;;;;;;;;;;5017312;28;20401;-79
2022/04/21 10:25:33;;;;;;;;;;;;;;;;;;5048081;28;20100;-78
2022/04/21 10:28:00;;;;;;;;;;;;;;;;;;5065260;28;20368;-79
2022/04/21 10:30:26;;;;;;;;;;;;;;;;;;5045929;28;19952;-80
2022/04/21 10:32:52;;;;;;;;;;;;;;;;;;5033695;28;19916;-79
2022/04/21 10:35:18;;;;;;;;;;;;;;;;;;5049973;28;19952;-79
2022/04/21 10:37:46;;;;;;;;;;;;;;;;;;5028923;28;19917;-78
2022/04/21 10:40:15;;;;;;;;;;;;;;;;;;5031229;28;19966;-79
2022/04/21 10:42:41;;;;;;;;;;;;;;;;;;5028364;28;20453;-79
2022/04/21 10:45:07;;;;;;;;;;;;;;;;;;5024354;28;19952;-79
2022/04/21 10:47:34;;;;;;;;;;;;;;;;;;5067134;28;19944;-79
2022/04/21 10:50:00;;;;;;;;;;;;;;;;;;5036588;28;19948;-79
2022/04/21 10:57:37;;;;;;;;;;;;;;;;;;5044462;28;21139;-78
2022/04/21 11:00:10;;;;;;;;;;;;;;;;;;5043881;28;20018;-79
2022/04/21 11:02:37;;;;;;;;;;;;;;;;;;5046797;28;19967;-79
2022/04/21 11:05:03;;;;;;;;;;;;;;;;;;5032371;28;19986;-79
2022/04/21 11:07:29;;;;;;;;;;;;;;;;;;5056211;28;20326;-78
2022/04/21 11:09:55;;;;;;;;;;;;;;;;;;5026388;28;19986;-78
2022/04/21 11:12:21;;;;;;;;;;;;;;;;;;5040635;28;19956;-77
2022/04/21 11:14:48;;;;;;;;;;;;;;;;;;5045783;28;19952;-78
2022/04/21 11:17:14;;;;;;;;;;;;;;;;;;5036010;28;20341;-77
2022/04/21 11:19:40;;;;;;;;;;;;;;;;;;5035548;28;19955;-77
2022/04/21 11:22:06;;;;;;;;;;;;;;;;;;5063624;28;19956;-79
2022/04/21 11:24:32;;;;;;;;;;;;;;;;;;5046417;28;19961;-78
2022/04/21 11:26:59;;;;;;;;;;;;;;;;;;5038298;28;19960;-78
2022/04/21 11:29:25;;;;;;;;;;;;;;;;;;5038088;28;19952;-78
2022/04/21 11:31:51;;;;;;;;;;;;;;;;;;5039031;28;19953;-78
2022/04/21 11:34:17;;;;;;;;;;;;;;;;;;5029340;28;19953;-78
2022/04/21 11:36:44;;;;;;;;;;;;;;;;;;5041741;28;20384;-78
2022/04/21 11:39:10;;;;;;;;;;;;;;;;;;5041461;28;19968;-78
2022/04/21 11:41:36;;;;;;;;;;;;;;;;;;5038066;28;19986;-78
2022/04/21 11:44:02;;;;;;;;;;;;;;;;;;5041037;28;19964;-78
2022/04/21 11:46:28;;;;;;;;;;;;;;;;;;5026099;28;20745;-79
2022/04/21 11:48:55;;;;;;;;;;;;;;;;;;5039827;28;20399;-79
2022/04/21 11:51:27;;;;;;;;;;;;;;;;;;5037385;28;20018;-79
2022/04/21 11:53:53;;;;;;;;;;;;;;;;;;5033937;28;19944;-78
2022/04/21 11:56:21;;;;;;;;;;;;;;;;;;5038924;28;20757;-79
2022/04/21 11:58:47;;;;;;;;;;;;;;;;;;5041567;28;20007;-79
2022/04/21 12:06:44;;;;;;;;;;;;;;;;;;5038532;28;19921;-79
2022/04/21 12:09:11;;;;;;;;;;;;;;;;;;5038554;28;20013;-79
2022/04/21 12:11:37;;;;;;;;;;;;;;;;;;5048762;28;19916;-79
2022/04/21 12:14:03;;;;;;;;;;;;;;;;;;5062461;28;19970;-80
2022/04/21 12:16:29;;;;;;;;;;;;;;;;;;5028798;28;19963;-78
2022/04/21 12:18:56;;;;;;;;;;;;;;;;;;5062527;28;20376;-78
2022/04/21 12:21:22;;;;;;;;;;;;;;;;;;5033529;28;19976;-78
2022/04/21 12:23:51;;;;;;;;;;;;;;;;;;5028797;28;20303;-78
2022/04/21 12:26:31;;;;;;;;;;;;;;;;;;5050936;28;19932;-78
2022/04/21 12:28:57;;;;;;;;;;;;;;;;;;5024886;28;20347;-78
2022/04/21 12:31:23;;;;;;;;;;;;;;;;;;5056576;28;19960;-79
2022/04/21 12:33:49;;;;;;;;;;;;;;;;;;5066733;28;19952;-79
2022/04/21 12:36:16;;;;;;;;;;;;;;;;;;5041715;28;19945;-79
2022/04/21 12:38:51;;;;;;;;;;;;;;;;;;5057274;28;20308;-79
2022/04/21 12:41:18;;;;;;;;;;;;;;;;;;5031030;28;19957;-79
2022/04/21 12:43:44;;;;;;;;;;;;;;;;;;5048872;28;20454;-79
2022/04/21 12:46:10;;;;;;;;;;;;;;;;;;5036157;28;19956;-79
2022/04/21 12:48:37;;;;;;;;;;;;;;;;;;5035203;28;20028;-78
2022/04/21 12:51:07;;;;;;;;;;;;;;;;;;5040936;28;19921;-78
2022/04/21 12:53:36;;;;;;;;;;;;;;;;;;5038498;28;19952;-78
2022/04/21 12:56:02;;;;;;;;;;;;;;;;;;5047539;28;20466;-78
2022/04/21 12:58:29;;;;;;;;;;;;;;;;;;5058978;28;19952;-79
2022/04/21 13:01:01;;;;;;;;;;;;;;;;;;5015439;28;20292;-78
2022/04/21 13:03:27;;;;;;;;;;;;;;;;;;5048219;28;20038;-78
2022/04/21 13:05:55;;;;;;;;;;;;;;;;;;5032255;28;19982;-79
2022/04/21 13:08:21;;;;;;;;;;;;;;;;;;5053523;28;19944;-79
2022/04/21 13:10:47;;;;;;;;;;;;;;;;;;5052065;28;19963;-80
2022/04/21 13:13:13;;;;;;;;;;;;;;;;;;5030409;28;19960;-79
2022/04/21 13:15:39;;;;;;;;;;;;;;;;;;5037075;28;20657;-78
2022/04/21 13:18:06;;;;;;;;;;;;;;;;;;5019108;28;19952;-79
2022/04/21 13:23:17;;;;;;;;;;;;;;;;;;5036201;28;19920;-79
2022/04/21 13:25:43;;;;;;;;;;;;;;;;;;5052231;28;20038;-78
2022/04/21 13:28:09;;;;;;;;;;;;;;;;;;5038918;28;19952;-79
2022/04/21 13:30:39;;;;;;;;;;;;;;;;;;5038824;28;19921;-78
2022/04/21 13:33:21;;;;;;;;;;;;;;;;;;5030114;28;20481;-78
2022/04/21 13:35:47;;;;;;;;;;;;;;;;;;5060566;28;19940;-77
2022/04/21 13:38:16;;;;;;;;;;;;;;;;;;5045164;28;19952;-77
2022/04/21 13:40:42;;;;;;;;;;;;;;;;;;5061777;28;20454;-77
2022/04/21 13:43:09;;;;;;;;;;;;;;;;;;5034200;28;19953;-77
2022/04/21 13:45:35;;;;;;;;;;;;;;;;;;5033823;28;20385;-77
2022/04/21 13:48:01;;;;;;;;;;;;;;;;;;5064458;28;19913;-78
2022/04/21 13:50:27;;;;;;;;;;;;;;;;;;5050807;28;19956;-78
2022/04/21 13:52:54;;;;;;;;;;;;;;;;;;5038381;28;19952;-77
2022/04/21 13:55:20;;;;;;;;;;;;;;;;;;5039029;28;19951;-78
2022/04/21 13:57:46;;;;;;;;;;;;;;;;;;5043920;28;19956;-78
2022/04/21 14:00:12;;;;;;;;;;;;;;;;;;5042154;28;19966;-78
2022/04/21 14:02:38;;;;;;;;;;;;;;;;;;5049420;28;19913;-78
2022/04/21 14:05:05;;;;;;;;;;;;;;;;;;5060779;28;19971;-79
2022/04/21 14:07:31;;;;;;;;;;;;;;;;;;5051491;28;20010;-78
2022/04/21 14:09:58;;;;;;;;;;;;;;;;;;5049817;28;19941;-78
2022/04/21 14:12:24;;;;;;;;;;;;;;;;;;5036855;28;20083;-78
2022/04/21 14:14:50;;;;;;;;;;;;;;;;;;5059144;28;19916;-78
2022/04/21 14:17:16;;;;;;;;;;;;;;;;;;5048456;28;19917;-79
2022/04/21 14:19:42;;;;;;;;;;;;;;;;;;5042140;28;19917;-78
2022/04/21 14:22:08;;;;;;;;;;;;;;;;;;5036100;28;19959;-78
2022/04/21 14:24:35;;;;;;;;;;;;;;;;;;5029201;28;20398;-78
2022/04/21 14:27:02;;;;;;;;;;;;;;;;;;5055323;28;19968;-79
2022/04/21 14:29:28;;;;;;;;;;;;;;;;;;5018874;28;19960;-77
2022/04/21 14:31:54;;;;;;;;;;;;;;;;;;5029901;28;20381;-78
2022/04/21 14:34:21;;;;;;;;;;;;;;;;;;5035370;28;19983;-78
2022/04/21 14:36:48;;;;;;;;;;;;;;;;;;5033481;28;20387;-78
2022/04/21 14:44:45;;;;;;;;;;;;;;;;;;5046129;28;20637;-78
2022/04/21 14:47:12;;;;;;;;;;;;;;;;;;5034547;28;19976;-79
2022/04/21 14:49:38;;;;;;;;;;;;;;;;;;5056860;28;20473;-78
2022/04/21 14:52:06;;;;;;;;;;;;;;;;;;5055425;28;19994;-78
2022/04/21 14:54:32;;;;;;;;;;;;;;;;;;5046190;28;19975;-78
2022/04/21 14:56:58;;;;;;;;;;;;;;;;;;5051476;28;19961;-79
2022/04/21 14:59:25;;;;;;;;;;;;;;;;;;5038767;28;20013;-79
2022/04/21 15:01:51;;;;;;;;;;;;;;;;;;5031057;28;19956;-79
2022/04/21 15:04:18;;;;;;;;;;;;;;;;;;5038988;28;19952;-78
2022/04/21 15:06:48;;;;;;;;;;;;;;;;;;5019547;28;20560;-78
2022/04/21 15:09:14;;;;;;;;;;;;;;;;;;5067584;28;20434;-78
2022/04/21 15:11:41;;;;;;;;;;;;;;;;;;5041674;28;19917;-78
2022/04/21 15:14:07;;;;;;;;;;;;;;;;;;5047859;28;19951;-78
2022/04/21 15:16:33;;;;;;;;;;;;;;;;;;5057571;28;19960;-78
2022/04/21 15:19:00;;;;;;;;;;;;;;;;;;5048384;28;19916;-79
2022/04/21 15:21:26;;;;;;;;;;;;;;;;;;5049677;28;20109;-80
2022/04/21 15:23:52;;;;;;;;;;;;;;;;;;5044807;28;19952;-80
2022/04/21 15:26:18;;;;;;;;;;;;;;;;;;5044668;28;19960;-80
2022/04/21 15:28:47;;;;;;;;;;;;;;;;;;5050360;28;20329;-79
2022/04/21 15:31:13;;;;;;;;;;;;;;;;;;5040305;28;19964;-79
2022/04/21 15:33:40;;;;;;;;;;;;;;;;;;5050700;28;20034;-79
2022/04/21 15:36:06;;;;;;;;;;;;;;;;;;5046644;28;20395;-79
2022/04/21 15:38:32;;;;;;;;;;;;;;;;;;5037542;28;19925;-80
2022/04/21 15:40:58;;;;;;;;;;;;;;;;;;5031035;28;19979;-80
2022/04/21 15:43:25;;;;;;;;;;;;;;;;;;5025808;28;19960;-79
2022/04/21 15:45:51;;;;;;;;;;;;;;;;;;5034548;28;19956;-79
2022/04/21 15:48:18;;;;;;;;;;;;;;;;;;5040185;28;20051;-79
2022/04/21 15:50:44;;;;;;;;;;;;;;;;;;5036677;28;19913;-78
2022/04/21 15:58:55;;;;;;;;;;;;;;;;;;5038666;28;19948;-79
2022/04/21 16:01:22;;;;;;;;;;;;;;;;;;5034059;28;19967;-80
2022/04/21 16:03:48;;;;;;;;;;;;;;;;;;5040549;28;19964;-79
2022/04/21 16:06:14;;;;;;;;;;;;;;;;;;5046174;28;19948;-80
2022/04/21 16:08:40;;;;;;;;;;;;;;;;;;5034008;28;19952;-79
2022/04/21 16:11:06;;;;;;;;;;;;;;;;;;5050217;28;19962;-79
2022/04/21 16:13:33;;;;;;;;;;;;;;;;;;5042598;28;19920;-79
2022/04/21 16:15:59;;;;;;;;;;;;;;;;;;5040943;28;19957;-78
2022/04/21 16:18:25;;;;;;;;;;;;;;;;;;5042638;28;20016;-79
2022/04/21 16:20:51;;;;;;;;;;;;;;;;;;5042752;28;20414;-79
2022/04/21 16:23:17;;;;;;;;;;;;;;;;;;5043123;28;19964;-79
2022/04/21 16:25:44;;;;;;;;;;;;;;;;;;5062695;28;19974;-78
2022/04/21 16:28:10;;;;;;;;;;;;;;;;;;5036275;28;20031;-79
2022/04/21 16:30:36;;;;;;;;;;;;;;;;;;5052574;28;19945;-80
2022/04/21 16:33:02;;;;;;;;;;;;;;;;;;5050280;28;19988;-79
2022/04/21 16:35:28;;;;;;;;;;;;;;;;;;5061160;28;19948;-79
2022/04/21 16:37:55;;;;;;;;;;;;;;;;;;5050806;28;19913;-78
2022/04/21 16:40:21;;;;;;;;;;;;;;;;;;5049963;28;19975;-78
2022/04/21 16:42:49;;;;;;;;;;;;;;;;;;5044243;28;19960;-79
2022/04/21 16:45:15;;;;;;;;;;;;;;;;;;5056207;28;19961;-79
2022/04/21 16:47:41;;;;;;;;;;;;;;;;;;5051384;28;19956;-79
2022/04/21 16:50:08;;;;;;;;;;;;;;;;;;5048664;28;20474;-79
2022/04/21 16:52:34;;;;;;;;;;;;;;;;;;5045943;28;19952;-79
2022/04/21 16:55:01;;;;;;;;;;;;;;;;;;5060358;28;19944;-79
2022/04/21 16:57:33;;;;;;;;;;;;;;;;;;5034231;28;19963;-79
2022/04/21 16:59:59;;;;;;;;;;;;;;;;;;5037239;28;19948;-79
2022/04/21 17:05:10;;;;;;;;;;;;;;;;;;5042183;28;19960;-79
2022/04/21 17:07:36;;;;;;;;;;;;;;;;;;5049981;28;19964;-79
2022/04/21 17:10:02;;;;;;;;;;;;;;;;;;5056309;28;20431;-79
2022/04/21 17:12:28;;;;;;;;;;;;;;;;;;5032917;28;19948;-77
2022/04/21 17:14:55;;;;;;;;;;;;;;;;;;5053729;28;19956;-77
2022/04/21 17:17:21;;;;;;;;;;;;;;;;;;5037371;28;19954;-78
2022/04/21 17:19:47;;;;;;;;;;;;;;;;;;5048201;28;19956;-78
2022/04/21 17:22:13;;;;;;;;;;;;;;;;;;5041270;28;19956;-78
2022/04/21 17:24:39;;;;;;;;;;;;;;;;;;5033179;28;19960;-78
2022/04/21 17:27:05;;;;;;;;;;;;;;;;;;5014137;28;19929;-80
2022/04/21 17:29:32;;;;;;;;;;;;;;;;;;5053016;28;19959;-82
2022/04/21 17:31:58;;;;;;;;;;;;;;;;;;5034473;28;19952;-81
2022/04/21 17:34:24;;;;;;;;;;;;;;;;;;5038416;28;20050;-79
2022/04/21 17:36:50;;;;;;;;;;;;;;;;;;5038298;28;20357;-81
2022/04/21 17:39:17;;;;;;;;;;;;;;;;;;5028818;28;19968;-80
2022/04/21 17:41:43;;;;;;;;;;;;;;;;;;5047376;28;19945;-80
2022/04/21 17:44:11;;;;;;;;;;;;;;;;;;5051773;28;20562;-81